Time;durP1;ratioP1;P1;durP2;ratioP2;P2;SDS_P1;SDS_P2;PMS_P1;PMS_P2;Temp;Humidity;BMP_temperature;BMP_pressure;BME280_temperature;BME280_humidity;BME280_pressure;Samples;Min_cycle;Max_cycle;Signal;HPM_P1;HPM_P2
2024/01/14 00:00:41;;;;;;;16.93;10.53;;;;;;;;;;5012904;28;20244;-77
2024/01/14 00:03:08;;;;;;;8.73;6.17;;;;;;;;;;5013196;28;20209;-77
2024/01/14 00:05:35;;;;;;;9.37;7.67;;;;;;;;;;5012801;28;20234;-78
2024/01/14 00:08:02;;;;;;;25.50;14.20;;;;;;;;;;5013007;28;20716;-79
2024/01/14 00:10:29;;;;;;;13.30;9.33;;;;;;;;;;5012767;28;20234;-78
2024/01/14 00:12:57;;;;;;;17.43;11.40;;;;;;;;;;5013412;28;20236;-78
2024/01/14 00:15:24;;;;;;;26.50;14.33;;;;;;;;;;5012552;28;20706;-78
2024/01/14 00:17:51;;;;;;;11.27;7.53;;;;;;;;;;5011808;28;20205;-78
2024/01/14 00:20:18;;;;;;;15.30;9.63;;;;;;;;;;5012281;28;20241;-78
2024/01/14 00:22:47;;;;;;;22.20;11.37;;;;;;;;;;5013134;28;20222;-78
2024/01/14 00:25:14;;;;;;;18.57;11.37;;;;;;;;;;5012277;28;20215;-78
2024/01/14 00:27:41;;;;;;;20.70;12.13;;;;;;;;;;5012543;28;20278;-78
2024/01/14 00:30:10;;;;;;;9.33;7.63;;;;;;;;;;5012100;28;20294;-78
2024/01/14 00:32:38;;;;;;;8.33;6.70;;;;;;;;;;5012712;28;20263;-78
2024/01/14 00:35:05;;;;;;;20.03;12.10;;;;;;;;;;5012482;28;20203;-78
2024/01/14 00:37:32;;;;;;;19.97;12.00;;;;;;;;;;5012348;28;20209;-78
2024/01/14 00:39:59;;;;;;;15.67;9.77;;;;;;;;;;5012605;28;20233;-77
2024/01/14 00:42:26;;;;;;;9.30;7.63;;;;;;;;;;5012078;28;20237;-78
2024/01/14 00:44:53;;;;;;;22.73;13.00;;;;;;;;;;5012787;28;20218;-78
2024/01/14 00:47:22;;;;;;;26.57;13.70;;;;;;;;;;5011642;28;20235;-78
2024/01/14 00:49:49;;;;;;;15.90;9.67;;;;;;;;;;5012273;28;20286;-78
2024/01/14 00:52:16;;;;;;;15.67;11.27;;;;;;;;;;5011860;28;20355;-78
2024/01/14 00:54:43;;;;;;;18.40;11.43;;;;;;;;;;5012505;28;20216;-78
2024/01/14 00:57:10;;;;;;;26.20;12.10;;;;;;;;;;5011598;28;20231;-78
2024/01/14 00:59:37;;;;;;;20.93;12.97;;;;;;;;;;5012140;28;20619;-78
2024/01/14 01:02:04;;;;;;;9.57;7.83;;;;;;;;;;5017568;28;20286;-78
2024/01/14 01:04:33;;;;;;;23.63;11.80;;;;;;;;;;5012433;28;20208;-78
2024/01/14 01:07:00;;;;;;;22.57;13.90;;;;;;;;;;5011604;28;20236;-78
2024/01/14 01:09:27;;;;;;;24.67;13.10;;;;;;;;;;5012418;28;20231;-78
2024/01/14 01:11:54;;;;;;;15.27;9.73;;;;;;;;;;5011857;28;20240;-78
2024/01/14 01:14:21;;;;;;;10.77;8.00;;;;;;;;;;5011924;28;20645;-78
2024/01/14 01:16:48;;;;;;;19.47;11.93;;;;;;;;;;5011454;28;20236;-78
2024/01/14 01:19:15;;;;;;;16.90;8.67;;;;;;;;;;5012080;28;20221;-78
2024/01/14 01:21:43;;;;;;;21.13;12.30;;;;;;;;;;5011639;28;20239;-79
2024/01/14 01:24:13;;;;;;;11.40;6.63;;;;;;;;;;5012314;28;20261;-77
2024/01/14 01:26:40;;;;;;;23.83;12.93;;;;;;;;;;5011382;28;20319;-78
2024/01/14 01:29:07;;;;;;;25.40;10.03;;;;;;;;;;5014306;28;20274;-78
2024/01/14 01:31:34;;;;;;;20.20;11.57;;;;;;;;;;5018170;28;20667;-77
2024/01/14 01:34:01;;;;;;;23.57;12.00;;;;;;;;;;5018714;28;20244;-77
2024/01/14 01:36:28;;;;;;;20.90;11.67;;;;;;;;;;5017749;28;20621;-78
2024/01/14 01:38:57;;;;;;;27.50;12.33;;;;;;;;;;5018520;28;20205;-78
2024/01/14 01:41:24;;;;;;;15.43;9.10;;;;;;;;;;5022555;28;20247;-79
2024/01/14 01:43:51;;;;;;;27.00;14.43;;;;;;;;;;5018413;28;20674;-78
2024/01/14 01:46:18;;;;;;;17.63;10.50;;;;;;;;;;5017724;28;20242;-78
2024/01/14 01:48:46;;;;;;;21.70;10.67;;;;;;;;;;5018415;28;20262;-78
2024/01/14 01:51:14;;;;;;;23.17;11.40;;;;;;;;;;5017687;28;20240;-78
2024/01/14 01:53:41;;;;;;;21.07;12.93;;;;;;;;;;5018074;28;20199;-78
2024/01/14 01:56:09;;;;;;;19.23;10.60;;;;;;;;;;5017834;28;20248;-78
2024/01/14 01:58:37;;;;;;;24.40;13.27;;;;;;;;;;5018050;28;20255;-78
2024/01/14 02:01:05;;;;;;;14.43;9.70;;;;;;;;;;5017758;28;20272;-79
2024/01/14 02:03:32;;;;;;;29.80;15.00;;;;;;;;;;5017253;28;20220;-78
2024/01/14 02:06:00;;;;;;;25.17;14.07;;;;;;;;;;5009867;28;20252;-78
2024/01/14 02:08:27;;;;;;;16.50;9.03;;;;;;;;;;4994446;28;20255;-78
2024/01/14 02:10:54;;;;;;;13.00;8.97;;;;;;;;;;4997844;28;20705;-79
2024/01/14 02:13:23;;;;;;;24.37;13.53;;;;;;;;;;4998432;28;20700;-78
2024/01/14 02:15:50;;;;;;;18.93;11.33;;;;;;;;;;4998136;28;20616;-78
2024/01/14 02:18:17;;;;;;;11.67;6.93;;;;;;;;;;4998389;28;20210;-78
2024/01/14 02:20:44;;;;;;;27.60;11.97;;;;;;;;;;4998237;28;20242;-78
2024/01/14 02:23:13;;;;;;;5.57;5.07;;;;;;;;;;4998704;28;20610;-78
2024/01/14 02:25:42;;;;;;;17.10;9.80;;;;;;;;;;4999980;28;20221;-78
2024/01/14 02:28:09;;;;;;;19.13;11.03;;;;;;;;;;5003543;28;20623;-78
2024/01/14 02:30:37;;;;;;;13.83;8.80;;;;;;;;;;5003600;28;20242;-78
2024/01/14 02:33:04;;;;;;;20.67;9.37;;;;;;;;;;5004519;28;20234;-78
2024/01/14 02:35:31;;;;;;;21.37;12.60;;;;;;;;;;5002573;28;20239;-78
2024/01/14 02:37:58;;;;;;;23.17;10.83;;;;;;;;;;5003104;28;20693;-78
2024/01/14 02:40:25;;;;;;;23.57;13.47;;;;;;;;;;4999762;28;20263;-79
2024/01/14 02:42:54;;;;;;;25.93;13.83;;;;;;;;;;4997334;28;20214;-78
2024/01/14 02:45:21;;;;;;;13.47;8.63;;;;;;;;;;4995133;28;20216;-79
2024/01/14 02:47:48;;;;;;;15.33;10.07;;;;;;;;;;4995300;28;20282;-78
2024/01/14 02:50:15;;;;;;;19.40;10.30;;;;;;;;;;4994733;28;20759;-78
2024/01/14 02:52:42;;;;;;;19.93;11.97;;;;;;;;;;4995109;28;20212;-78
2024/01/14 02:55:09;;;;;;;19.43;11.63;;;;;;;;;;4994869;28;20680;-78
2024/01/14 02:57:36;;;;;;;18.47;11.10;;;;;;;;;;4994655;28;20263;-78
2024/01/14 03:00:06;;;;;;;21.50;11.13;;;;;;;;;;4994477;28;20271;-79
2024/01/14 03:02:33;;;;;;;11.40;7.97;;;;;;;;;;4995171;28;20603;-78
2024/01/14 03:05:00;;;;;;;13.73;9.33;;;;;;;;;;4994791;28;20205;-79
2024/01/14 03:07:27;;;;;;;21.40;12.87;;;;;;;;;;5013879;28;20219;-78
2024/01/14 03:09:54;;;;;;;17.17;10.73;;;;;;;;;;5014291;28;20235;-78
2024/01/14 03:12:21;;;;;;;16.60;10.40;;;;;;;;;;5013701;28;20643;-78
2024/01/14 03:14:48;;;;;;;12.07;9.27;;;;;;;;;;5014447;28;20215;-78
2024/01/14 03:17:16;;;;;;;7.63;6.13;;;;;;;;;;5013526;28;20247;-78
2024/01/14 03:19:43;;;;;;;18.30;10.33;;;;;;;;;;5014047;28;20281;-78
2024/01/14 03:22:13;;;;;;;13.67;8.67;;;;;;;;;;5013646;28;20243;-78
2024/01/14 03:24:40;;;;;;;20.27;11.67;;;;;;;;;;5014168;28;20224;-78
2024/01/14 03:27:07;;;;;;;25.70;14.97;;;;;;;;;;5013353;28;20673;-78
2024/01/14 03:29:34;;;;;;;25.57;13.53;;;;;;;;;;5013935;28;20258;-78
2024/01/14 03:32:01;;;;;;;22.13;12.40;;;;;;;;;;5013456;28;20240;-78
2024/01/14 03:34:30;;;;;;;22.40;11.83;;;;;;;;;;5013810;28;20200;-78
2024/01/14 03:36:57;;;;;;;12.50;7.73;;;;;;;;;;5013062;28;20657;-78
2024/01/14 03:39:24;;;;;;;27.10;13.50;;;;;;;;;;5013929;28;20360;-78
2024/01/14 03:41:51;;;;;;;10.27;6.00;;;;;;;;;;5012961;28;20609;-78
2024/01/14 03:44:18;;;;;;;15.63;10.60;;;;;;;;;;5013787;28;20196;-78
2024/01/14 03:46:45;;;;;;;15.97;9.50;;;;;;;;;;5012920;28;20667;-78
2024/01/14 03:49:12;;;;;;;19.30;11.63;;;;;;;;;;5013685;28;20237;-78
2024/01/14 03:51:41;;;;;;;3.90;3.37;;;;;;;;;;5012894;28;20240;-78
2024/01/14 03:54:08;;;;;;;16.87;9.63;;;;;;;;;;5013382;28;20294;-78
2024/01/14 03:56:35;;;;;;;5.17;4.63;;;;;;;;;;5012598;28;20241;-78
2024/01/14 03:59:02;;;;;;;16.97;10.00;;;;;;;;;;5013130;28;20626;-78
2024/01/14 04:01:29;;;;;;;9.40;8.13;;;;;;;;;;5012024;28;20477;-78
2024/01/14 04:03:56;;;;;;;21.27;11.57;;;;;;;;;;4993386;28;20679;-78
2024/01/14 04:06:23;;;;;;;26.47;13.03;;;;;;;;;;4981835;28;20245;-79
2024/01/14 04:08:52;;;;;;;21.93;11.57;;;;;;;;;;4974061;28;20229;-78
2024/01/14 04:11:19;;;;;;;4.70;4.30;;;;;;;;;;4973609;28;20241;-78
2024/01/14 04:13:46;;;;;;;20.93;10.83;;;;;;;;;;4973872;28;20243;-78
2024/01/14 04:16:13;;;;;;;34.07;13.10;;;;;;;;;;4973340;28;20244;-78
2024/01/14 04:18:40;;;;;;;14.37;9.30;;;;;;;;;;4973813;28;20259;-78
2024/01/14 04:21:07;;;;;;;5.93;5.43;;;;;;;;;;4973588;28;20247;-78
2024/01/14 04:23:34;;;;;;;15.67;9.13;;;;;;;;;;4974009;28;20218;-78
2024/01/14 04:26:06;;;;;;;8.03;6.37;;;;;;;;;;4973360;28;20250;-78
2024/01/14 04:28:33;;;;;;;18.67;10.97;;;;;;;;;;4973841;28;20312;-78
2024/01/14 04:31:00;;;;;;;17.13;10.50;;;;;;;;;;4973141;28;20268;-78
2024/01/14 04:33:27;;;;;;;13.00;8.93;;;;;;;;;;4973762;28;20654;-78
2024/01/14 04:35:55;;;;;;;22.43;10.70;;;;;;;;;;4973148;28;20237;-78
2024/01/14 04:38:22;;;;;;;19.03;10.67;;;;;;;;;;4973363;28;20204;-77
2024/01/14 04:40:49;;;;;;;17.87;10.47;;;;;;;;;;4973247;28;20304;-77
2024/01/14 04:43:17;;;;;;;10.43;6.70;;;;;;;;;;4973618;28;20217;-77
2024/01/14 04:45:44;;;;;;;18.97;10.87;;;;;;;;;;4973291;28;20240;-76
2024/01/14 04:48:11;;;;;;;12.57;8.80;;;;;;;;;;4978210;28;20216;-77
2024/01/14 04:50:39;;;;;;;9.00;6.47;;;;;;;;;;4973110;28;20623;-78
2024/01/14 04:53:06;;;;;;;20.03;11.40;;;;;;;;;;4973601;28;20204;-77
2024/01/14 04:55:34;;;;;;;24.10;12.00;;;;;;;;;;4972969;28;20296;-77
2024/01/14 04:58:01;;;;;;;20.30;10.43;;;;;;;;;;4973225;28;20209;-77
2024/01/14 05:00:29;;;;;;;22.53;11.37;;;;;;;;;;4972822;28;20242;-77
2024/01/14 05:02:56;;;;;;;8.27;6.33;;;;;;;;;;4973471;28;20236;-77
2024/01/14 05:05:23;;;;;;;9.87;7.33;;;;;;;;;;4972435;28;20239;-77
2024/01/14 05:07:50;;;;;;;17.63;10.63;;;;;;;;;;4972930;28;20216;-77
2024/01/14 05:10:18;;;;;;;23.10;11.63;;;;;;;;;;4972484;28;20232;-77
2024/01/14 05:12:45;;;;;;;15.37;8.93;;;;;;;;;;4973226;28;20219;-77
2024/01/14 05:15:12;;;;;;;14.53;9.23;;;;;;;;;;4972571;28;20205;-76
2024/01/14 05:17:40;;;;;;;14.37;9.33;;;;;;;;;;4973020;28;20214;-76
2024/01/14 05:20:09;;;;;;;13.73;8.90;;;;;;;;;;4972694;28;20232;-78
2024/01/14 05:22:36;;;;;;;18.80;11.67;;;;;;;;;;4972891;28;20607;-77
2024/01/14 05:25:03;;;;;;;17.23;9.23;;;;;;;;;;4972622;28;20259;-78
2024/01/14 05:27:30;;;;;;;18.77;10.13;;;;;;;;;;4972764;28;20590;-77
2024/01/14 05:29:57;;;;;;;29.13;12.63;;;;;;;;;;4972898;28;20233;-77
2024/01/14 05:32:24;;;;;;;18.40;9.53;;;;;;;;;;4972347;28;20329;-77
2024/01/14 05:34:52;;;;;;;19.97;10.17;;;;;;;;;;4972872;28;20238;-76
2024/01/14 05:37:20;;;;;;;17.20;9.20;;;;;;;;;;4972033;28;20252;-77
2024/01/14 05:39:47;;;;;;;8.40;5.73;;;;;;;;;;4972735;28;20229;-77
2024/01/14 05:42:14;;;;;;;7.00;5.60;;;;;;;;;;4972137;28;20244;-77
2024/01/14 05:44:41;;;;;;;16.43;10.63;;;;;;;;;;4972982;28;20207;-77
2024/01/14 05:47:09;;;;;;;13.83;8.63;;;;;;;;;;4971980;28;20646;-77
2024/01/14 05:49:36;;;;;;;17.40;10.30;;;;;;;;;;4972522;28;20236;-77
2024/01/14 05:52:05;;;;;;;9.97;8.23;;;;;;;;;;4972218;28;20692;-77
2024/01/14 05:54:32;;;;;;;19.53;10.37;;;;;;;;;;4972830;28;20212;-77
2024/01/14 05:56:59;;;;;;;12.77;8.50;;;;;;;;;;4971960;28;20291;-78
2024/01/14 05:59:26;;;;;;;4.07;3.83;;;;;;;;;;4972452;28;20213;-78
2024/01/14 06:01:55;;;;;;;20.93;10.97;;;;;;;;;;4975356;28;20733;-78
2024/01/14 06:04:22;;;;;;;13.87;8.10;;;;;;;;;;4991905;28;20212;-78
2024/01/14 06:06:49;;;;;;;8.50;5.67;;;;;;;;;;4991296;28;20239;-78
2024/01/14 06:09:17;;;;;;;18.57;10.30;;;;;;;;;;4991704;28;20726;-78
2024/01/14 06:11:44;;;;;;;20.43;10.30;;;;;;;;;;4991335;28;20240;-78
2024/01/14 06:14:12;;;;;;;16.53;9.23;;;;;;;;;;4991826;28;20204;-78
2024/01/14 06:16:39;;;;;;;25.63;12.53;;;;;;;;;;4993077;28;20231;-79
2024/01/14 06:19:06;;;;;;;13.23;8.33;;;;;;;;;;4995682;28;20231;-78
2024/01/14 06:21:33;;;;;;;22.63;12.37;;;;;;;;;;4995048;28;20638;-78
2024/01/14 06:24:00;;;;;;;16.70;10.30;;;;;;;;;;4995495;28;20208;-78
2024/01/14 06:26:28;;;;;;;16.27;8.67;;;;;;;;;;4994928;28;20343;-78
2024/01/14 06:28:56;;;;;;;20.67;10.40;;;;;;;;;;4995567;28;20212;-78
2024/01/14 06:31:23;;;;;;;29.73;13.43;;;;;;;;;;4994835;28;20239;-78
2024/01/14 06:33:50;;;;;;;16.33;8.07;;;;;;;;;;4995239;28;20227;-78
2024/01/14 06:36:19;;;;;;;13.40;7.40;;;;;;;;;;4994538;28;20233;-78
2024/01/14 06:38:46;;;;;;;9.83;6.77;;;;;;;;;;4995338;28;20219;-78
2024/01/14 06:41:17;;;;;;;14.17;9.17;;;;;;;;;;4994485;28;20244;-78
2024/01/14 06:43:46;;;;;;;10.23;6.47;;;;;;;;;;4995400;28;20197;-78
2024/01/14 06:46:13;;;;;;;25.93;11.80;;;;;;;;;;4994342;28;20664;-77
2024/01/14 06:48:40;;;;;;;14.40;8.13;;;;;;;;;;4995254;28;20223;-77
2024/01/14 06:51:07;;;;;;;5.20;4.70;;;;;;;;;;4994266;28;20242;-78
2024/01/14 06:53:34;;;;;;;21.73;10.60;;;;;;;;;;4994759;28;20212;-78
2024/01/14 06:56:02;;;;;;;20.57;11.07;;;;;;;;;;4994641;28;20236;-77
2024/01/14 06:58:29;;;;;;;18.50;11.33;;;;;;;;;;4994738;28;20216;-77
2024/01/14 07:00:58;;;;;;;18.10;9.93;;;;;;;;;;4994274;28;20236;-78
2024/01/14 07:03:25;;;;;;;18.27;10.67;;;;;;;;;;4994639;28;20204;-78
2024/01/14 07:05:52;;;;;;;20.70;11.43;;;;;;;;;;4994309;28;20244;-77
2024/01/14 07:08:19;;;;;;;22.73;11.67;;;;;;;;;;4994521;28;20254;-77
2024/01/14 07:10:46;;;;;;;8.53;5.63;;;;;;;;;;4994033;28;20318;-76
2024/01/14 07:13:13;;;;;;;20.03;10.30;;;;;;;;;;4994838;28;20213;-76
2024/01/14 07:15:40;;;;;;;23.23;9.87;;;;;;;;;;4993457;28;20247;-76
2024/01/14 07:18:08;;;;;;;17.70;10.50;;;;;;;;;;4994214;28;20231;-77
2024/01/14 07:20:35;;;;;;;22.50;11.27;;;;;;;;;;4993892;28;20232;-77
2024/01/14 07:23:02;;;;;;;19.93;8.73;;;;;;;;;;4994536;28;20587;-76
2024/01/14 07:25:29;;;;;;;14.77;9.97;;;;;;;;;;4993939;28;20228;-77
2024/01/14 07:27:57;;;;;;;30.10;13.23;;;;;;;;;;4993702;28;20208;-77
2024/01/14 07:30:24;;;;;;;21.10;11.77;;;;;;;;;;4993609;28;20239;-77
2024/01/14 07:32:51;;;;;;;27.67;11.93;;;;;;;;;;4994266;28;20212;-77
2024/01/14 07:35:19;;;;;;;25.67;12.37;;;;;;;;;;4993678;28;20582;-77
2024/01/14 07:37:46;;;;;;;32.27;11.23;;;;;;;;;;4993923;28;20212;-77
2024/01/14 07:40:13;;;;;;;12.40;9.17;;;;;;;;;;4993534;28;20229;-77
2024/01/14 07:42:40;;;;;;;21.20;10.00;;;;;;;;;;4993939;28;20627;-75
2024/01/14 07:45:08;;;;;;;23.93;13.23;;;;;;;;;;4993508;28;20200;-76
2024/01/14 07:47:35;;;;;;;20.47;12.27;;;;;;;;;;4993591;28;20263;-75
2024/01/14 07:50:02;;;;;;;17.07;9.97;;;;;;;;;;4993717;28;20682;-76
2024/01/14 07:52:30;;;;;;;26.47;13.23;;;;;;;;;;5013261;28;20238;-75
2024/01/14 07:54:57;;;;;;;25.70;12.53;;;;;;;;;;5013163;28;20566;-75
2024/01/14 07:57:24;;;;;;;14.50;9.60;;;;;;;;;;5012715;28;20748;-76
2024/01/14 07:59:51;;;;;;;17.17;10.33;;;;;;;;;;5013139;28;20238;-75
2024/01/14 08:02:18;;;;;;;20.27;10.90;;;;;;;;;;5012727;28;20761;-75
2024/01/14 08:04:45;;;;;;;15.70;10.13;;;;;;;;;;5013055;28;20208;-75
2024/01/14 08:07:14;;;;;;;20.70;10.93;;;;;;;;;;5012404;28;20236;-76
2024/01/14 08:09:42;;;;;;;13.93;8.17;;;;;;;;;;5012633;28;20706;-76
2024/01/14 08:12:09;;;;;;;15.33;9.43;;;;;;;;;;5012450;28;20246;-75
2024/01/14 08:14:36;;;;;;;20.73;11.33;;;;;;;;;;5012902;28;20204;-76
2024/01/14 08:17:03;;;;;;;18.80;10.67;;;;;;;;;;5012278;28;20289;-75
2024/01/14 08:19:30;;;;;;;17.60;10.87;;;;;;;;;;5012538;28;20815;-77
2024/01/14 08:21:58;;;;;;;21.83;12.20;;;;;;;;;;5012402;28;20242;-77
2024/01/14 08:24:25;;;;;;;15.67;9.53;;;;;;;;;;5012833;28;20234;-76
2024/01/14 08:26:53;;;;;;;14.37;10.53;;;;;;;;;;5012031;28;20235;-76
2024/01/14 08:29:20;;;;;;;19.90;10.80;;;;;;;;;;5012417;28;20211;-77
2024/01/14 08:31:47;;;;;;;10.47;7.13;;;;;;;;;;5012131;28;20266;-77
2024/01/14 08:34:14;;;;;;;11.93;8.27;;;;;;;;;;5012547;28;20212;-77
2024/01/14 08:36:41;;;;;;;22.43;11.50;;;;;;;;;;5012201;28;20247;-77
2024/01/14 08:39:08;;;;;;;26.33;12.37;;;;;;;;;;5011751;28;20277;-77
2024/01/14 08:41:35;;;;;;;17.83;9.20;;;;;;;;;;5011837;28;20238;-77
2024/01/14 08:44:06;;;;;;;25.00;12.60;;;;;;;;;;5012708;28;20269;-77
2024/01/14 08:46:35;;;;;;;21.73;11.33;;;;;;;;;;5011880;28;20323;-77
2024/01/14 08:49:03;;;;;;;12.33;8.33;;;;;;;;;;5012373;28;20217;-77
2024/01/14 08:51:30;;;;;;;19.37;9.20;;;;;;;;;;5011714;28;20238;-77
2024/01/14 08:54:00;;;;;;;23.73;12.37;;;;;;;;;;5012330;28;20906;-78
2024/01/14 08:56:28;;;;;;;9.27;4.50;;;;;;;;;;5011462;28;20653;-77
2024/01/14 08:58:56;;;;;;;10.87;6.90;;;;;;;;;;5012099;28;20560;-77
2024/01/14 09:01:24;;;;;;;18.73;10.37;;;;;;;;;;5011715;28;20263;-77
2024/01/14 09:03:51;;;;;;;6.90;5.20;;;;;;;;;;5012179;28;20637;-77
2024/01/14 09:06:18;;;;;;;4.40;4.03;;;;;;;;;;5011390;28;20709;-77
2024/01/14 09:08:45;;;;;;;20.57;9.83;;;;;;;;;;5012361;28;20207;-77
2024/01/14 09:11:12;;;;;;;6.67;5.40;;;;;;;;;;5001950;28;20244;-78
2024/01/14 09:13:39;;;;;;;21.93;9.53;;;;;;;;;;4992475;28;20222;-77
2024/01/14 09:16:07;;;;;;;20.40;9.73;;;;;;;;;;4992132;28;20237;-77
2024/01/14 09:18:35;;;;;;;22.70;11.33;;;;;;;;;;4992143;28;20207;-77
2024/01/14 09:21:02;;;;;;;20.83;10.73;;;;;;;;;;4991698;28;20249;-77
2024/01/14 09:23:29;;;;;;;13.40;9.17;;;;;;;;;;4992133;28;20745;-78
2024/01/14 09:25:56;;;;;;;15.83;10.17;;;;;;;;;;4991641;28;20367;-77
2024/01/14 09:28:24;;;;;;;20.53;9.03;;;;;;;;;;4992410;28;20300;-77
2024/01/14 09:30:51;;;;;;;9.23;6.57;;;;;;;;;;4992210;28;20271;-77
2024/01/14 09:33:18;;;;;;;15.73;9.60;;;;;;;;;;4993060;28;20212;-77
2024/01/14 09:35:47;;;;;;;9.17;5.13;;;;;;;;;;4991721;28;20310;-77
2024/01/14 09:38:14;;;;;;;10.23;6.60;;;;;;;;;;4991977;28;20267;-78
2024/01/14 09:40:42;;;;;;;13.13;9.10;;;;;;;;;;4991583;28;20271;-78
2024/01/14 09:43:11;;;;;;;12.07;7.60;;;;;;;;;;4992121;28;20219;-78
2024/01/14 09:45:40;;;;;;;9.73;5.67;;;;;;;;;;4991702;28;20734;-77
2024/01/14 09:48:07;;;;;;;12.30;8.60;;;;;;;;;;4991749;28;20266;-78
2024/01/14 09:50:35;;;;;;;9.37;6.07;;;;;;;;;;4993411;28;20263;-78
2024/01/14 09:53:09;;;;;;;13.20;7.60;;;;;;;;;;4995956;28;20591;-77
2024/01/14 09:55:36;;;;;;;4.37;3.87;;;;;;;;;;4995445;28;20740;-77
2024/01/14 09:58:04;;;;;;;14.20;8.27;;;;;;;;;;4995764;28;20260;-76
2024/01/14 10:00:31;;;;;;;15.77;6.77;;;;;;;;;;4995323;28;20318;-77
2024/01/14 10:02:59;;;;;;;8.67;7.13;;;;;;;;;;4995445;28;20212;-77
2024/01/14 10:05:25;;;;;;;16.03;8.17;;;;;;;;;;4995349;28;20256;-78
2024/01/14 10:07:52;;;;;;;16.07;8.73;;;;;;;;;;4995293;28;20206;-77
2024/01/14 10:10:20;;;;;;;13.57;7.07;;;;;;;;;;4994748;28;20230;-78
2024/01/14 10:12:48;;;;;;;12.30;7.60;;;;;;;;;;4995470;28;20571;-77
2024/01/14 10:15:15;;;;;;;13.73;7.80;;;;;;;;;;4995208;28;20214;-77
2024/01/14 10:17:44;;;;;;;16.13;8.43;;;;;;;;;;4995157;28;20220;-77
2024/01/14 10:20:12;;;;;;;9.43;6.07;;;;;;;;;;4994973;28;20228;-78
2024/01/14 10:22:42;;;;;;;9.53;5.73;;;;;;;;;;4995236;28;20732;-77
2024/01/14 10:25:09;;;;;;;16.03;9.67;;;;;;;;;;4994775;28;20205;-78
2024/01/14 10:27:37;;;;;;;20.33;11.60;;;;;;;;;;4995155;28;20314;-77
2024/01/14 10:30:05;;;;;;;19.33;11.13;;;;;;;;;;4994502;28;20237;-77
2024/01/14 10:32:33;;;;;;;19.23;10.70;;;;;;;;;;4995313;28;20214;-77
2024/01/14 10:35:06;;;;;;;16.07;8.23;;;;;;;;;;4995131;28;20210;-77
2024/01/14 10:37:36;;;;;;;18.07;9.40;;;;;;;;;;4994994;28;20232;-77
2024/01/14 10:40:04;;;;;;;17.60;8.57;;;;;;;;;;4994707;28;20253;-78
2024/01/14 10:42:31;;;;;;;16.73;9.73;;;;;;;;;;5014596;28;20556;-77
2024/01/14 10:44:59;;;;;;;10.87;7.53;;;;;;;;;;5014585;28;20221;-77
2024/01/14 10:47:27;;;;;;;7.60;6.10;;;;;;;;;;5013922;28;20241;-77
2024/01/14 10:49:56;;;;;;;19.37;10.33;;;;;;;;;;5014419;28;20233;-77
2024/01/14 10:52:24;;;;;;;12.63;8.47;;;;;;;;;;5014264;28;20246;-77
2024/01/14 10:54:53;;;;;;;11.77;7.03;;;;;;;;;;5014331;28;20206;-77
2024/01/14 10:57:25;;;;;;;18.73;10.20;;;;;;;;;;5013657;28;20239;-77
2024/01/14 10:59:57;;;;;;;13.63;8.53;;;;;;;;;;5014298;28;20263;-77
2024/01/14 11:02:27;;;;;;;17.80;9.33;;;;;;;;;;5012922;28;20319;-77
2024/01/14 11:04:54;;;;;;;20.93;10.90;;;;;;;;;;5014545;28;20213;-77
2024/01/14 11:07:23;;;;;;;19.40;10.00;;;;;;;;;;5013526;28;20263;-78
2024/01/14 11:09:50;;;;;;;16.07;8.33;;;;;;;;;;5014085;28;20233;-77
2024/01/14 11:12:21;;;;;;;10.93;5.43;;;;;;;;;;5013760;28;20246;-78
2024/01/14 11:14:52;;;;;;;17.93;9.87;;;;;;;;;;5014138;28;20212;-77
2024/01/14 11:17:27;;;;;;;14.30;8.93;;;;;;;;;;5013321;28;20236;-77
2024/01/14 11:19:57;;;;;;;25.37;11.43;;;;;;;;;;5013933;28;20224;-77
2024/01/14 11:22:26;;;;;;;21.97;9.80;;;;;;;;;;5013544;28;20267;-77
2024/01/14 11:24:53;;;;;;;25.23;12.77;;;;;;;;;;5014302;28;20240;-78
2024/01/14 11:27:20;;;;;;;17.60;9.90;;;;;;;;;;5013240;28;20244;-77
2024/01/14 11:29:47;;;;;;;18.07;10.20;;;;;;;;;;5013951;28;20630;-78
2024/01/14 11:32:16;;;;;;;15.07;9.67;;;;;;;;;;5013216;28;20236;-78
2024/01/14 11:34:54;;;;;;;14.43;8.57;;;;;;;;;;5013933;28;20294;-77
2024/01/14 11:37:40;;;;;;;9.57;6.20;;;;;;;;;;5013079;28;20253;-78
2024/01/14 11:40:15;;;;;;;19.60;10.57;;;;;;;;;;5013709;28;20247;-79
2024/01/14 11:42:46;;;;;;;9.10;6.70;;;;;;;;;;5013369;28;20228;-77
2024/01/14 11:45:14;;;;;;;8.87;5.90;;;;;;;;;;5013164;28;20267;-78
2024/01/14 11:47:43;;;;;;;19.23;9.60;;;;;;;;;;5013209;28;20224;-78
2024/01/14 11:50:11;;;;;;;12.00;6.93;;;;;;;;;;5012840;28;20319;-77
2024/01/14 11:52:38;;;;;;;15.43;9.23;;;;;;;;;;5013259;28;20233;-77
2024/01/14 11:55:06;;;;;;;23.00;10.53;;;;;;;;;;5012919;28;20208;-78
2024/01/14 11:57:34;;;;;;;12.00;6.53;;;;;;;;;;5013067;28;20301;-77
2024/01/14 12:00:01;;;;;;;18.10;8.53;;;;;;;;;;5013059;28;20226;-77
2024/01/14 12:02:28;;;;;;;14.30;8.30;;;;;;;;;;5013433;28;20252;-78
2024/01/14 12:04:55;;;;;;;12.20;6.97;;;;;;;;;;5013468;28;20208;-78
2024/01/14 12:07:23;;;;;;;15.50;8.53;;;;;;;;;;5012622;28;20264;-78
2024/01/14 12:09:53;;;;;;;8.60;4.83;;;;;;;;;;5012966;28;20237;-78
2024/01/14 12:12:21;;;;;;;12.07;8.57;;;;;;;;;;5013054;28;20261;-78
2024/01/14 12:14:49;;;;;;;29.77;11.80;;;;;;;;;;5013218;28;20665;-79
2024/01/14 12:17:16;;;;;;;18.47;10.83;;;;;;;;;;5012319;28;20234;-79
2024/01/14 12:19:43;;;;;;;20.47;9.67;;;;;;;;;;5012808;28;20233;-79
2024/01/14 12:22:10;;;;;;;28.07;12.47;;;;;;;;;;5012547;28;20248;-78
2024/01/14 12:24:37;;;;;;;12.03;7.70;;;;;;;;;;5012855;28;20260;-79
2024/01/14 12:27:05;;;;;;;21.50;10.57;;;;;;;;;;5012127;28;20234;-79
2024/01/14 12:29:32;;;;;;;14.33;9.30;;;;;;;;;;5012510;28;20749;-79
2024/01/14 12:32:05;;;;;;;18.87;9.23;;;;;;;;;;5012199;28;20246;-78
2024/01/14 12:34:33;;;;;;;22.10;12.13;;;;;;;;;;5012939;28;20207;-78
2024/01/14 12:37:00;;;;;;;16.27;8.60;;;;;;;;;;5011792;28;20238;-78
2024/01/14 12:39:27;;;;;;;24.47;11.23;;;;;;;;;;5012631;28;20210;-79
2024/01/14 12:41:55;;;;;;;29.47;14.27;;;;;;;;;;5011816;28;20234;-79
2024/01/14 12:44:22;;;;;;;17.23;10.03;;;;;;;;;;5012492;28;20679;-79
2024/01/14 12:46:49;;;;;;;19.90;11.70;;;;;;;;;;5011869;28;20283;-78
2024/01/14 12:49:17;;;;;;;20.77;10.63;;;;;;;;;;5012161;28;20911;-79
2024/01/14 12:51:44;;;;;;;13.77;9.00;;;;;;;;;;5011942;28;20236;-79
2024/01/14 12:54:11;;;;;;;12.87;6.67;;;;;;;;;;5012444;28;20253;-78
2024/01/14 12:56:38;;;;;;;19.57;9.23;;;;;;;;;;5011523;28;20735;-78
2024/01/14 12:59:05;;;;;;;21.17;10.07;;;;;;;;;;5012296;28;20260;-78
2024/01/14 13:01:32;;;;;;;21.07;12.03;;;;;;;;;;5011826;28;20311;-79
2024/01/14 13:03:59;;;;;;;19.10;11.20;;;;;;;;;;5012322;28;20217;-78
2024/01/14 13:06:28;;;;;;;23.43;10.70;;;;;;;;;;5000116;28;20250;-79
2024/01/14 13:08:55;;;;;;;27.37;14.17;;;;;;;;;;4992656;28;20269;-79
2024/01/14 13:11:22;;;;;;;23.67;11.07;;;;;;;;;;4991979;28;20312;-78
2024/01/14 13:13:49;;;;;;;23.30;12.53;;;;;;;;;;4992478;28;20670;-78
2024/01/14 13:16:16;;;;;;;21.37;10.80;;;;;;;;;;4991859;28;20249;-78
2024/01/14 13:18:43;;;;;;;19.67;9.60;;;;;;;;;;4992352;28;20627;-79
2024/01/14 13:21:10;;;;;;;21.83;11.93;;;;;;;;;;4991927;28;20239;-78
2024/01/14 13:23:38;;;;;;;20.63;11.20;;;;;;;;;;4992611;28;20204;-78
2024/01/14 13:26:05;;;;;;;15.70;8.03;;;;;;;;;;4991366;28;20243;-78
2024/01/14 13:28:33;;;;;;;20.70;11.23;;;;;;;;;;4992059;28;20611;-78
2024/01/14 13:31:00;;;;;;;21.53;10.70;;;;;;;;;;4991830;28;20289;-78
2024/01/14 13:33:27;;;;;;;16.97;10.73;;;;;;;;;;4992327;28;20210;-78
2024/01/14 13:35:54;;;;;;;24.10;12.57;;;;;;;;;;4991779;28;20235;-78
2024/01/14 13:38:21;;;;;;;6.23;5.63;;;;;;;;;;4992178;28;20250;-79
2024/01/14 13:40:49;;;;;;;19.43;10.17;;;;;;;;;;4991666;28;20247;-78
2024/01/14 13:43:16;;;;;;;11.40;8.23;;;;;;;;;;4992196;28;20283;-79
2024/01/14 13:45:43;;;;;;;20.63;10.33;;;;;;;;;;4991832;28;20296;-79
2024/01/14 13:48:11;;;;;;;14.87;7.33;;;;;;;;;;4991778;28;20288;-78
2024/01/14 13:50:38;;;;;;;23.00;10.70;;;;;;;;;;4991483;28;20244;-78
2024/01/14 13:53:05;;;;;;;23.73;11.27;;;;;;;;;;4991874;28;20728;-78
2024/01/14 13:55:32;;;;;;;14.90;8.70;;;;;;;;;;4991409;28;20728;-78
2024/01/14 13:58:00;;;;;;;15.37;8.20;;;;;;;;;;4991953;28;20218;-78
2024/01/14 14:00:27;;;;;;;13.17;8.47;;;;;;;;;;4991364;28;20242;-78
2024/01/14 14:02:54;;;;;;;28.23;13.60;;;;;;;;;;4991872;28;20568;-78
2024/01/14 14:05:21;;;;;;;22.60;10.93;;;;;;;;;;4991472;28;20210;-78
2024/01/14 14:07:48;;;;;;;24.17;13.30;;;;;;;;;;4991769;28;20268;-78
2024/01/14 14:10:16;;;;;;;22.23;11.23;;;;;;;;;;4991348;28;20226;-78
2024/01/14 14:12:43;;;;;;;22.30;12.07;;;;;;;;;;4991858;28;20282;-78
2024/01/14 14:15:11;;;;;;;24.87;13.53;;;;;;;;;;4991561;28;20214;-79
2024/01/14 14:17:38;;;;;;;27.23;11.13;;;;;;;;;;4991744;28;20211;-78
2024/01/14 14:20:07;;;;;;;26.13;12.57;;;;;;;;;;4991184;28;20770;-79
2024/01/14 14:22:34;;;;;;;13.43;8.27;;;;;;;;;;4991919;28;20214;-78
2024/01/14 14:25:01;;;;;;;19.93;11.73;;;;;;;;;;4991999;28;20237;-78